sensor_id;sensor_type;location;lat;lon;timestamp;P1;durP1;ratioP1;P2;durP2;ratioP2
56893;SDS011;43392;50.078;13.704;2022-10-16T00:01:06;9.43;;;4.30;;
56893;SDS011;43392;50.078;13.704;2022-10-16T00:03:33;7.88;;;4.20;;
56893;SDS011;43392;50.078;13.704;2022-10-16T00:06:01;7.88;;;3.80;;
56893;SDS011;43392;50.078;13.704;2022-10-16T00:08:28;9.52;;;4.10;;
56893;SDS011;43392;50.078;13.704;2022-10-16T00:10:59;7.32;;;3.92;;
56893;SDS011;43392;50.078;13.704;2022-10-16T00:13:27;9.75;;;3.83;;
56893;SDS011;43392;50.078;13.704;2022-10-16T00:15:54;8.13;;;4.30;;
56893;SDS011;43392;50.078;13.704;2022-10-16T00:18:21;6.15;;;3.33;;
56893;SDS011;43392;50.078;13.704;2022-10-16T00:20:48;7.10;;;3.83;;
56893;SDS011;43392;50.078;13.704;2022-10-16T00:23:14;6.90;;;3.85;;
56893;SDS011;43392;50.078;13.704;2022-10-16T00:25:41;6.88;;;3.80;;
56893;SDS011;43392;50.078;13.704;2022-10-16T00:28:09;7.13;;;3.28;;
56893;SDS011;43392;50.078;13.704;2022-10-16T00:30:37;7.60;;;3.45;;
56893;SDS011;43392;50.078;13.704;2022-10-16T00:33:04;7.88;;;3.30;;
56893;SDS011;43392;50.078;13.704;2022-10-16T00:35:30;8.20;;;3.20;;
56893;SDS011;43392;50.078;13.704;2022-10-16T00:37:57;5.97;;;3.35;;
56893;SDS011;43392;50.078;13.704;2022-10-16T00:40:24;7.82;;;3.25;;
56893;SDS011;43392;50.078;13.704;2022-10-16T00:42:50;8.15;;;4.03;;
56893;SDS011;43392;50.078;13.704;2022-10-16T00:45:18;7.97;;;3.65;;
56893;SDS011;43392;50.078;13.704;2022-10-16T00:47:45;6.20;;;3.22;;
56893;SDS011;43392;50.078;13.704;2022-10-16T00:50:16;8.18;;;2.80;;
56893;SDS011;43392;50.078;13.704;2022-10-16T00:52:48;6.40;;;2.97;;
56893;SDS011;43392;50.078;13.704;2022-10-16T00:55:17;4.97;;;2.60;;
56893;SDS011;43392;50.078;13.704;2022-10-16T00:57:45;5.03;;;2.63;;
56893;SDS011;43392;50.078;13.704;2022-10-16T01:00:13;4.38;;;2.58;;
56893;SDS011;43392;50.078;13.704;2022-10-16T01:05:10;8.38;;;2.97;;
56893;SDS011;43392;50.078;13.704;2022-10-16T01:07:40;4.38;;;2.70;;
56893;SDS011;43392;50.078;13.704;2022-10-16T01:10:17;6.07;;;2.80;;
56893;SDS011;43392;50.078;13.704;2022-10-16T01:12:53;7.72;;;2.80;;
56893;SDS011;43392;50.078;13.704;2022-10-16T01:15:25;7.22;;;3.00;;
56893;SDS011;43392;50.078;13.704;2022-10-16T01:17:58;6.18;;;2.92;;
56893;SDS011;43392;50.078;13.704;2022-10-16T01:20:29;4.88;;;2.70;;
56893;SDS011;43392;50.078;13.704;2022-10-16T01:23:02;4.60;;;2.58;;
56893;SDS011;43392;50.078;13.704;2022-10-16T01:25:53;4.82;;;2.70;;
56893;SDS011;43392;50.078;13.704;2022-10-16T01:28:45;6.57;;;3.00;;
56893;SDS011;43392;50.078;13.704;2022-10-16T01:31:17;5.93;;;2.97;;
56893;SDS011;43392;50.078;13.704;2022-10-16T01:33:50;6.18;;;3.10;;
56893;SDS011;43392;50.078;13.704;2022-10-16T01:36:21;6.07;;;2.60;;
56893;SDS011;43392;50.078;13.704;2022-10-16T01:38:52;4.82;;;2.85;;
56893;SDS011;43392;50.078;13.704;2022-10-16T01:41:23;6.55;;;2.67;;
56893;SDS011;43392;50.078;13.704;2022-10-16T01:43:57;6.97;;;3.10;;
56893;SDS011;43392;50.078;13.704;2022-10-16T01:46:27;6.60;;;3.03;;
56893;SDS011;43392;50.078;13.704;2022-10-16T01:48:57;5.70;;;2.53;;
56893;SDS011;43392;50.078;13.704;2022-10-16T01:51:26;6.32;;;3.08;;
56893;SDS011;43392;50.078;13.704;2022-10-16T01:53:55;5.68;;;2.58;;
56893;SDS011;43392;50.078;13.704;2022-10-16T01:56:26;7.82;;;3.10;;
56893;SDS011;43392;50.078;13.704;2022-10-16T01:58:57;7.03;;;2.78;;
56893;SDS011;43392;50.078;13.704;2022-10-16T02:01:26;7.20;;;2.95;;
56893;SDS011;43392;50.078;13.704;2022-10-16T02:03:57;5.53;;;2.83;;
56893;SDS011;43392;50.078;13.704;2022-10-16T02:06:28;10.30;;;3.10;;
56893;SDS011;43392;50.078;13.704;2022-10-16T02:08:55;5.28;;;2.63;;
56893;SDS011;43392;50.078;13.704;2022-10-16T02:11:21;8.00;;;2.97;;
56893;SDS011;43392;50.078;13.704;2022-10-16T02:13:49;4.85;;;2.78;;
56893;SDS011;43392;50.078;13.704;2022-10-16T02:16:23;9.32;;;3.42;;
56893;SDS011;43392;50.078;13.704;2022-10-16T02:18:58;5.82;;;2.60;;
56893;SDS011;43392;50.078;13.704;2022-10-16T02:21:26;8.35;;;2.97;;
56893;SDS011;43392;50.078;13.704;2022-10-16T02:23:57;7.15;;;2.90;;
56893;SDS011;43392;50.078;13.704;2022-10-16T02:26:30;8.38;;;3.15;;
56893;SDS011;43392;50.078;13.704;2022-10-16T02:29:02;5.65;;;2.70;;
56893;SDS011;43392;50.078;13.704;2022-10-16T02:31:35;5.93;;;3.05;;
56893;SDS011;43392;50.078;13.704;2022-10-16T02:34:07;6.68;;;3.00;;
56893;SDS011;43392;50.078;13.704;2022-10-16T02:36:37;7.43;;;3.05;;
56893;SDS011;43392;50.078;13.704;2022-10-16T02:39:05;4.15;;;2.70;;
56893;SDS011;43392;50.078;13.704;2022-10-16T02:41:33;6.00;;;2.80;;
56893;SDS011;43392;50.078;13.704;2022-10-16T02:43:59;7.03;;;3.25;;
56893;SDS011;43392;50.078;13.704;2022-10-16T02:46:26;6.22;;;2.85;;
56893;SDS011;43392;50.078;13.704;2022-10-16T02:48:54;5.63;;;2.80;;
56893;SDS011;43392;50.078;13.704;2022-10-16T02:51:20;5.70;;;3.08;;
56893;SDS011;43392;50.078;13.704;2022-10-16T02:53:47;6.45;;;3.10;;
56893;SDS011;43392;50.078;13.704;2022-10-16T02:56:13;6.43;;;3.10;;
56893;SDS011;43392;50.078;13.704;2022-10-16T02:58:40;8.13;;;3.30;;
56893;SDS011;43392;50.078;13.704;2022-10-16T03:01:07;7.30;;;3.25;;
56893;SDS011;43392;50.078;13.704;2022-10-16T03:03:33;5.15;;;3.10;;
56893;SDS011;43392;50.078;13.704;2022-10-16T03:06:01;8.90;;;3.45;;
56893;SDS011;43392;50.078;13.704;2022-10-16T03:08:28;8.55;;;3.50;;
56893;SDS011;43392;50.078;13.704;2022-10-16T03:10:54;5.70;;;3.28;;
56893;SDS011;43392;50.078;13.704;2022-10-16T03:13:21;6.28;;;3.22;;
56893;SDS011;43392;50.078;13.704;2022-10-16T03:15:48;5.07;;;3.10;;
56893;SDS011;43392;50.078;13.704;2022-10-16T03:18:14;6.10;;;3.08;;
56893;SDS011;43392;50.078;13.704;2022-10-16T03:20:42;5.82;;;3.00;;
56893;SDS011;43392;50.078;13.704;2022-10-16T03:23:10;5.90;;;3.15;;
56893;SDS011;43392;50.078;13.704;2022-10-16T03:25:37;7.45;;;3.30;;
56893;SDS011;43392;50.078;13.704;2022-10-16T03:28:04;5.50;;;3.00;;
56893;SDS011;43392;50.078;13.704;2022-10-16T03:30:31;5.68;;;3.42;;
56893;SDS011;43392;50.078;13.704;2022-10-16T03:32:57;7.20;;;2.85;;
56893;SDS011;43392;50.078;13.704;2022-10-16T03:35:24;9.05;;;3.20;;
56893;SDS011;43392;50.078;13.704;2022-10-16T03:37:50;5.82;;;3.08;;
56893;SDS011;43392;50.078;13.704;2022-10-16T03:40:18;5.68;;;3.45;;
56893;SDS011;43392;50.078;13.704;2022-10-16T03:42:45;7.63;;;3.35;;
56893;SDS011;43392;50.078;13.704;2022-10-16T03:45:12;5.03;;;2.63;;
56893;SDS011;43392;50.078;13.704;2022-10-16T03:47:38;6.25;;;2.90;;
56893;SDS011;43392;50.078;13.704;2022-10-16T03:50:05;4.75;;;3.15;;
56893;SDS011;43392;50.078;13.704;2022-10-16T03:52:33;6.38;;;3.20;;
56893;SDS011;43392;50.078;13.704;2022-10-16T03:54:59;6.35;;;2.92;;
56893;SDS011;43392;50.078;13.704;2022-10-16T03:57:28;7.10;;;2.63;;
56893;SDS011;43392;50.078;13.704;2022-10-16T03:59:54;6.50;;;3.22;;
56893;SDS011;43392;50.078;13.704;2022-10-16T04:02:21;5.85;;;2.97;;
56893;SDS011;43392;50.078;13.704;2022-10-16T04:04:47;6.50;;;3.10;;
56893;SDS011;43392;50.078;13.704;2022-10-16T04:07:14;8.35;;;3.50;;
56893;SDS011;43392;50.078;13.704;2022-10-16T04:09:40;6.03;;;3.38;;
56893;SDS011;43392;50.078;13.704;2022-10-16T04:12:07;7.25;;;3.28;;
56893;SDS011;43392;50.078;13.704;2022-10-16T04:14:35;6.43;;;3.13;;
56893;SDS011;43392;50.078;13.704;2022-10-16T04:17:02;7.15;;;3.08;;
56893;SDS011;43392;50.078;13.704;2022-10-16T04:19:28;5.10;;;3.08;;
56893;SDS011;43392;50.078;13.704;2022-10-16T04:21:55;6.43;;;2.83;;
56893;SDS011;43392;50.078;13.704;2022-10-16T04:24:21;6.55;;;2.60;;
56893;SDS011;43392;50.078;13.704;2022-10-16T04:26:48;6.75;;;3.20;;
56893;SDS011;43392;50.078;13.704;2022-10-16T04:29:14;5.03;;;2.85;;
56893;SDS011;43392;50.078;13.704;2022-10-16T04:31:42;8.55;;;2.95;;
56893;SDS011;43392;50.078;13.704;2022-10-16T04:34:09;6.63;;;2.70;;
56893;SDS011;43392;50.078;13.704;2022-10-16T04:36:35;7.60;;;3.13;;
56893;SDS011;43392;50.078;13.704;2022-10-16T04:39:02;5.03;;;2.85;;
56893;SDS011;43392;50.078;13.704;2022-10-16T04:41:29;9.25;;;3.15;;
56893;SDS011;43392;50.078;13.704;2022-10-16T04:43:55;5.32;;;2.63;;
56893;SDS011;43392;50.078;13.704;2022-10-16T04:46:22;4.47;;;2.92;;
56893;SDS011;43392;50.078;13.704;2022-10-16T04:48:50;10.77;;;3.38;;
56893;SDS011;43392;50.078;13.704;2022-10-16T04:51:16;5.35;;;2.58;;
56893;SDS011;43392;50.078;13.704;2022-10-16T04:53:43;4.53;;;2.40;;
56893;SDS011;43392;50.078;13.704;2022-10-16T04:56:10;7.38;;;3.00;;
56893;SDS011;43392;50.078;13.704;2022-10-16T04:58:37;6.55;;;2.92;;
56893;SDS011;43392;50.078;13.704;2022-10-16T05:01:03;5.50;;;2.60;;
56893;SDS011;43392;50.078;13.704;2022-10-16T05:03:30;3.85;;;2.65;;
56893;SDS011;43392;50.078;13.704;2022-10-16T05:05:58;5.63;;;2.70;;
56893;SDS011;43392;50.078;13.704;2022-10-16T05:08:24;4.88;;;2.78;;
56893;SDS011;43392;50.078;13.704;2022-10-16T05:10:51;4.75;;;2.42;;
56893;SDS011;43392;50.078;13.704;2022-10-16T05:13:17;5.68;;;2.90;;
56893;SDS011;43392;50.078;13.704;2022-10-16T05:15:46;7.75;;;2.70;;
56893;SDS011;43392;50.078;13.704;2022-10-16T05:18:13;6.85;;;2.83;;
56893;SDS011;43392;50.078;13.704;2022-10-16T05:20:40;6.15;;;2.95;;
56893;SDS011;43392;50.078;13.704;2022-10-16T05:23:08;7.10;;;2.88;;
56893;SDS011;43392;50.078;13.704;2022-10-16T05:25:36;7.18;;;2.83;;
56893;SDS011;43392;50.078;13.704;2022-10-16T05:28:03;8.90;;;2.90;;
56893;SDS011;43392;50.078;13.704;2022-10-16T05:30:30;6.30;;;2.63;;
56893;SDS011;43392;50.078;13.704;2022-10-16T05:32:56;8.98;;;2.95;;
56893;SDS011;43392;50.078;13.704;2022-10-16T05:35:23;3.35;;;2.25;;
56893;SDS011;43392;50.078;13.704;2022-10-16T05:37:50;4.82;;;2.40;;
56893;SDS011;43392;50.078;13.704;2022-10-16T05:40:18;6.38;;;2.60;;
56893;SDS011;43392;50.078;13.704;2022-10-16T05:42:44;6.10;;;2.88;;
56893;SDS011;43392;50.078;13.704;2022-10-16T05:45:11;5.55;;;2.50;;
56893;SDS011;43392;50.078;13.704;2022-10-16T05:47:38;5.90;;;2.67;;
56893;SDS011;43392;50.078;13.704;2022-10-16T05:50:05;4.38;;;2.80;;
56893;SDS011;43392;50.078;13.704;2022-10-16T05:52:32;5.05;;;2.75;;
56893;SDS011;43392;50.078;13.704;2022-10-16T05:54:58;6.07;;;2.83;;
56893;SDS011;43392;50.078;13.704;2022-10-16T05:57:26;6.25;;;2.80;;
56893;SDS011;43392;50.078;13.704;2022-10-16T05:59:53;7.90;;;2.67;;
56893;SDS011;43392;50.078;13.704;2022-10-16T06:02:19;6.05;;;2.65;;
56893;SDS011;43392;50.078;13.704;2022-10-16T06:04:46;6.18;;;2.60;;
56893;SDS011;43392;50.078;13.704;2022-10-16T06:07:13;5.20;;;2.50;;
56893;SDS011;43392;50.078;13.704;2022-10-16T06:09:39;5.70;;;2.58;;
56893;SDS011;43392;50.078;13.704;2022-10-16T06:12:06;4.07;;;2.40;;
56893;SDS011;43392;50.078;13.704;2022-10-16T06:14:34;7.05;;;2.70;;
56893;SDS011;43392;50.078;13.704;2022-10-16T06:17:00;4.72;;;2.55;;
56893;SDS011;43392;50.078;13.704;2022-10-16T06:19:27;5.13;;;2.35;;
56893;SDS011;43392;50.078;13.704;2022-10-16T06:21:53;7.05;;;2.67;;
56893;SDS011;43392;50.078;13.704;2022-10-16T06:24:23;6.10;;;2.40;;
56893;SDS011;43392;50.078;13.704;2022-10-16T06:26:49;3.50;;;1.85;;
56893;SDS011;43392;50.078;13.704;2022-10-16T06:29:16;7.05;;;2.38;;
56893;SDS011;43392;50.078;13.704;2022-10-16T06:31:44;4.85;;;2.35;;
56893;SDS011;43392;50.078;13.704;2022-10-16T06:34:10;5.07;;;2.28;;
56893;SDS011;43392;50.078;13.704;2022-10-16T06:36:37;5.68;;;2.42;;
56893;SDS011;43392;50.078;13.704;2022-10-16T06:39:04;5.75;;;3.25;;
56893;SDS011;43392;50.078;13.704;2022-10-16T06:41:32;6.82;;;3.22;;
56893;SDS011;43392;50.078;13.704;2022-10-16T06:43:59;6.72;;;2.67;;
56893;SDS011;43392;50.078;13.704;2022-10-16T06:46:26;15.68;;;2.42;;
56893;SDS011;43392;50.078;13.704;2022-10-16T06:48:54;6.32;;;3.10;;
56893;SDS011;43392;50.078;13.704;2022-10-16T06:51:21;6.97;;;2.83;;
56893;SDS011;43392;50.078;13.704;2022-10-16T06:53:50;5.22;;;2.28;;
56893;SDS011;43392;50.078;13.704;2022-10-16T06:56:19;3.22;;;1.85;;
56893;SDS011;43392;50.078;13.704;2022-10-16T06:58:47;4.20;;;2.17;;
56893;SDS011;43392;50.078;13.704;2022-10-16T07:01:15;5.45;;;2.47;;
56893;SDS011;43392;50.078;13.704;2022-10-16T07:03:43;4.55;;;2.30;;
56893;SDS011;43392;50.078;13.704;2022-10-16T07:06:12;8.43;;;2.40;;
56893;SDS011;43392;50.078;13.704;2022-10-16T07:08:41;3.23;;;1.90;;
56893;SDS011;43392;50.078;13.704;2022-10-16T07:11:09;3.63;;;1.88;;
56893;SDS011;43392;50.078;13.704;2022-10-16T07:13:38;7.90;;;2.22;;
56893;SDS011;43392;50.078;13.704;2022-10-16T07:16:06;11.05;;;5.80;;
56893;SDS011;43392;50.078;13.704;2022-10-16T07:18:34;9.82;;;5.45;;
56893;SDS011;43392;50.078;13.704;2022-10-16T07:21:04;7.03;;;3.33;;
56893;SDS011;43392;50.078;13.704;2022-10-16T07:25:59;7.25;;;3.25;;
56893;SDS011;43392;50.078;13.704;2022-10-16T07:28:26;7.13;;;2.67;;
56893;SDS011;43392;50.078;13.704;2022-10-16T07:30:53;8.63;;;2.40;;
56893;SDS011;43392;50.078;13.704;2022-10-16T07:33:19;4.30;;;2.42;;
56893;SDS011;43392;50.078;13.704;2022-10-16T07:35:47;6.55;;;2.80;;
56893;SDS011;43392;50.078;13.704;2022-10-16T07:38:14;6.40;;;2.33;;
56893;SDS011;43392;50.078;13.704;2022-10-16T07:40:42;5.47;;;3.10;;
56893;SDS011;43392;50.078;13.704;2022-10-16T07:43:09;5.32;;;3.35;;
56893;SDS011;43392;50.078;13.704;2022-10-16T07:45:36;7.03;;;3.50;;
56893;SDS011;43392;50.078;13.704;2022-10-16T07:48:03;6.50;;;3.75;;
56893;SDS011;43392;50.078;13.704;2022-10-16T07:50:29;7.53;;;4.72;;
56893;SDS011;43392;50.078;13.704;2022-10-16T07:52:56;9.18;;;5.05;;
56893;SDS011;43392;50.078;13.704;2022-10-16T07:55:22;7.03;;;3.78;;
56893;SDS011;43392;50.078;13.704;2022-10-16T07:57:50;12.55;;;7.65;;
56893;SDS011;43392;50.078;13.704;2022-10-16T08:00:17;9.90;;;5.32;;
56893;SDS011;43392;50.078;13.704;2022-10-16T08:02:44;8.60;;;5.22;;
56893;SDS011;43392;50.078;13.704;2022-10-16T08:05:10;13.57;;;7.38;;
56893;SDS011;43392;50.078;13.704;2022-10-16T08:07:37;10.73;;;6.90;;
56893;SDS011;43392;50.078;13.704;2022-10-16T08:10:03;13.55;;;7.93;;
56893;SDS011;43392;50.078;13.704;2022-10-16T08:12:31;11.23;;;6.35;;
56893;SDS011;43392;50.078;13.704;2022-10-16T08:14:58;12.13;;;5.90;;
56893;SDS011;43392;50.078;13.704;2022-10-16T08:17:25;5.57;;;2.65;;
56893;SDS011;43392;50.078;13.704;2022-10-16T08:19:52;6.40;;;2.60;;
56893;SDS011;43392;50.078;13.704;2022-10-16T08:22:18;9.05;;;2.80;;
56893;SDS011;43392;50.078;13.704;2022-10-16T08:24:45;7.28;;;2.47;;
56893;SDS011;43392;50.078;13.704;2022-10-16T08:27:11;5.75;;;2.22;;
56893;SDS011;43392;50.078;13.704;2022-10-16T08:29:38;5.65;;;2.33;;
56893;SDS011;43392;50.078;13.704;2022-10-16T08:32:06;5.30;;;2.50;;
56893;SDS011;43392;50.078;13.704;2022-10-16T08:34:33;5.57;;;2.47;;
56893;SDS011;43392;50.078;13.704;2022-10-16T08:36:59;4.57;;;2.20;;
56893;SDS011;43392;50.078;13.704;2022-10-16T08:39:26;5.47;;;2.13;;
56893;SDS011;43392;50.078;13.704;2022-10-16T08:44:59;6.22;;;2.50;;
56893;SDS011;43392;50.078;13.704;2022-10-16T08:47:47;4.05;;;2.20;;
56893;SDS011;43392;50.078;13.704;2022-10-16T08:50:18;3.70;;;1.95;;
56893;SDS011;43392;50.078;13.704;2022-10-16T08:52:50;5.15;;;2.28;;
56893;SDS011;43392;50.078;13.704;2022-10-16T08:55:23;2.25;;;1.70;;
56893;SDS011;43392;50.078;13.704;2022-10-16T08:57:57;3.22;;;1.73;;
56893;SDS011;43392;50.078;13.704;2022-10-16T09:00:24;5.85;;;1.95;;
56893;SDS011;43392;50.078;13.704;2022-10-16T09:02:55;4.97;;;1.88;;
56893;SDS011;43392;50.078;13.704;2022-10-16T09:05:38;3.75;;;1.90;;
56893;SDS011;43392;50.078;13.704;2022-10-16T09:08:20;5.68;;;1.98;;
56893;SDS011;43392;50.078;13.704;2022-10-16T09:10:56;4.80;;;2.08;;
56893;SDS011;43392;50.078;13.704;2022-10-16T09:13:27;4.53;;;2.10;;
56893;SDS011;43392;50.078;13.704;2022-10-16T09:15:58;5.40;;;2.00;;
56893;SDS011;43392;50.078;13.704;2022-10-16T09:18:35;7.38;;;2.38;;
56893;SDS011;43392;50.078;13.704;2022-10-16T09:21:09;3.00;;;1.63;;
56893;SDS011;43392;50.078;13.704;2022-10-16T09:23:41;4.03;;;2.00;;
56893;SDS011;43392;50.078;13.704;2022-10-16T09:26:09;3.95;;;1.80;;
56893;SDS011;43392;50.078;13.704;2022-10-16T09:28:38;4.47;;;1.63;;
56893;SDS011;43392;50.078;13.704;2022-10-16T09:31:05;8.68;;;2.03;;
56893;SDS011;43392;50.078;13.704;2022-10-16T09:33:38;6.82;;;1.80;;
56893;SDS011;43392;50.078;13.704;2022-10-16T09:36:07;4.05;;;1.88;;
56893;SDS011;43392;50.078;13.704;2022-10-16T09:38:35;3.75;;;1.60;;
56893;SDS011;43392;50.078;13.704;2022-10-16T09:41:03;6.43;;;1.98;;
56893;SDS011;43392;50.078;13.704;2022-10-16T09:43:41;3.33;;;2.00;;
56893;SDS011;43392;50.078;13.704;2022-10-16T09:46:21;6.50;;;2.03;;
56893;SDS011;43392;50.078;13.704;2022-10-16T09:48:53;7.97;;;1.85;;
56893;SDS011;43392;50.078;13.704;2022-10-16T09:51:23;7.32;;;2.05;;
56893;SDS011;43392;50.078;13.704;2022-10-16T09:53:54;5.18;;;2.08;;
56893;SDS011;43392;50.078;13.704;2022-10-16T09:56:22;4.90;;;1.90;;
56893;SDS011;43392;50.078;13.704;2022-10-16T09:58:51;5.85;;;1.90;;
56893;SDS011;43392;50.078;13.704;2022-10-16T10:01:19;3.63;;;1.80;;
56893;SDS011;43392;50.078;13.704;2022-10-16T10:03:48;4.53;;;1.90;;
56893;SDS011;43392;50.078;13.704;2022-10-16T10:06:20;4.18;;;1.92;;
56893;SDS011;43392;50.078;13.704;2022-10-16T10:08:53;3.03;;;1.67;;
56893;SDS011;43392;50.078;13.704;2022-10-16T10:11:36;4.75;;;2.10;;
56893;SDS011;43392;50.078;13.704;2022-10-16T10:14:23;4.82;;;2.10;;
56893;SDS011;43392;50.078;13.704;2022-10-16T10:17:01;5.68;;;1.85;;
56893;SDS011;43392;50.078;13.704;2022-10-16T10:19:37;4.88;;;1.80;;
56893;SDS011;43392;50.078;13.704;2022-10-16T10:22:15;3.33;;;1.80;;
56893;SDS011;43392;50.078;13.704;2022-10-16T10:24:56;6.57;;;2.75;;
56893;SDS011;43392;50.078;13.704;2022-10-16T10:27:38;5.15;;;2.58;;
56893;SDS011;43392;50.078;13.704;2022-10-16T10:30:11;27.42;;;12.88;;
56893;SDS011;43392;50.078;13.704;2022-10-16T10:32:46;19.75;;;9.45;;
56893;SDS011;43392;50.078;13.704;2022-10-16T10:35:22;13.52;;;5.60;;
56893;SDS011;43392;50.078;13.704;2022-10-16T10:37:59;13.10;;;5.43;;
56893;SDS011;43392;50.078;13.704;2022-10-16T10:40:36;17.17;;;6.85;;
56893;SDS011;43392;50.078;13.704;2022-10-16T10:43:11;13.30;;;4.90;;
56893;SDS011;43392;50.078;13.704;2022-10-16T10:45:46;15.13;;;5.63;;
56893;SDS011;43392;50.078;13.704;2022-10-16T10:48:22;12.60;;;4.45;;
56893;SDS011;43392;50.078;13.704;2022-10-16T10:50:57;15.13;;;5.22;;
56893;SDS011;43392;50.078;13.704;2022-10-16T10:53:35;8.90;;;3.17;;
56893;SDS011;43392;50.078;13.704;2022-10-16T10:56:16;12.60;;;3.55;;
56893;SDS011;43392;50.078;13.704;2022-10-16T10:58:57;9.90;;;3.08;;
56893;SDS011;43392;50.078;13.704;2022-10-16T11:01:38;9.38;;;3.15;;
56893;SDS011;43392;50.078;13.704;2022-10-16T11:07:24;6.18;;;2.22;;
56893;SDS011;43392;50.078;13.704;2022-10-16T11:09:56;5.88;;;2.30;;
56893;SDS011;43392;50.078;13.704;2022-10-16T11:12:29;6.53;;;2.28;;
56893;SDS011;43392;50.078;13.704;2022-10-16T11:14:58;10.50;;;4.03;;
56893;SDS011;43392;50.078;13.704;2022-10-16T11:17:31;10.93;;;4.70;;
56893;SDS011;43392;50.078;13.704;2022-10-16T11:20:03;9.02;;;4.22;;
56893;SDS011;43392;50.078;13.704;2022-10-16T11:22:38;9.57;;;3.20;;
56893;SDS011;43392;50.078;13.704;2022-10-16T11:25:13;6.15;;;2.42;;
56893;SDS011;43392;50.078;13.704;2022-10-16T11:27:43;7.53;;;2.45;;
56893;SDS011;43392;50.078;13.704;2022-10-16T11:30:13;6.53;;;2.78;;
56893;SDS011;43392;50.078;13.704;2022-10-16T11:32:49;6.43;;;2.00;;
56893;SDS011;43392;50.078;13.704;2022-10-16T11:35:24;6.72;;;2.60;;
56893;SDS011;43392;50.078;13.704;2022-10-16T11:37:58;8.25;;;3.63;;
56893;SDS011;43392;50.078;13.704;2022-10-16T11:40:31;8.93;;;3.38;;
56893;SDS011;43392;50.078;13.704;2022-10-16T11:43:02;7.75;;;2.10;;
56893;SDS011;43392;50.078;13.704;2022-10-16T11:45:38;3.83;;;1.40;;
56893;SDS011;43392;50.078;13.704;2022-10-16T11:48:11;3.33;;;1.17;;
56893;SDS011;43392;50.078;13.704;2022-10-16T11:50:45;5.13;;;1.63;;
56893;SDS011;43392;50.078;13.704;2022-10-16T11:53:18;5.25;;;1.60;;
56893;SDS011;43392;50.078;13.704;2022-10-16T11:55:55;5.15;;;1.40;;
56893;SDS011;43392;50.078;13.704;2022-10-16T11:58:23;1.77;;;1.00;;
56893;SDS011;43392;50.078;13.704;2022-10-16T12:00:57;4.63;;;1.15;;
56893;SDS011;43392;50.078;13.704;2022-10-16T12:03:32;5.03;;;1.30;;
56893;SDS011;43392;50.078;13.704;2022-10-16T12:06:06;3.58;;;1.30;;
56893;SDS011;43392;50.078;13.704;2022-10-16T12:08:43;2.63;;;1.20;;
56893;SDS011;43392;50.078;13.704;2022-10-16T12:11:22;6.90;;;1.80;;
56893;SDS011;43392;50.078;13.704;2022-10-16T12:14:03;3.20;;;1.40;;
56893;SDS011;43392;50.078;13.704;2022-10-16T12:16:50;3.78;;;1.65;;
56893;SDS011;43392;50.078;13.704;2022-10-16T12:19:19;2.25;;;1.17;;
56893;SDS011;43392;50.078;13.704;2022-10-16T12:21:46;4.40;;;1.58;;
56893;SDS011;43392;50.078;13.704;2022-10-16T12:24:21;3.50;;;1.30;;
56893;SDS011;43392;50.078;13.704;2022-10-16T12:26:58;4.47;;;1.40;;
56893;SDS011;43392;50.078;13.704;2022-10-16T12:29:28;1.73;;;0.90;;
56893;SDS011;43392;50.078;13.704;2022-10-16T12:31:59;5.50;;;1.55;;
56893;SDS011;43392;50.078;13.704;2022-10-16T12:34:28;5.13;;;1.38;;
56893;SDS011;43392;50.078;13.704;2022-10-16T12:37:08;6.32;;;1.38;;
56893;SDS011;43392;50.078;13.704;2022-10-16T12:39:39;4.20;;;1.10;;
56893;SDS011;43392;50.078;13.704;2022-10-16T12:42:19;4.20;;;1.15;;
56893;SDS011;43392;50.078;13.704;2022-10-16T12:44:48;3.85;;;1.10;;
56893;SDS011;43392;50.078;13.704;2022-10-16T12:47:22;2.67;;;1.05;;
56893;SDS011;43392;50.078;13.704;2022-10-16T12:50:00;2.35;;;1.17;;
56893;SDS011;43392;50.078;13.704;2022-10-16T12:52:28;3.08;;;1.48;;
56893;SDS011;43392;50.078;13.704;2022-10-16T12:55:02;4.53;;;1.33;;
56893;SDS011;43392;50.078;13.704;2022-10-16T12:57:34;2.30;;;1.15;;
56893;SDS011;43392;50.078;13.704;2022-10-16T13:00:12;2.53;;;1.20;;
56893;SDS011;43392;50.078;13.704;2022-10-16T13:02:55;5.20;;;1.50;;
56893;SDS011;43392;50.078;13.704;2022-10-16T13:05:52;3.75;;;1.35;;
56893;SDS011;43392;50.078;13.704;2022-10-16T13:08:36;1.60;;;1.10;;
56893;SDS011;43392;50.078;13.704;2022-10-16T13:11:14;4.55;;;1.23;;
56893;SDS011;43392;50.078;13.704;2022-10-16T13:13:58;5.53;;;1.55;;
56893;SDS011;43392;50.078;13.704;2022-10-16T13:16:38;7.72;;;3.50;;
56893;SDS011;43392;50.078;13.704;2022-10-16T13:19:17;8.60;;;3.92;;
56893;SDS011;43392;50.078;13.704;2022-10-16T13:21:51;6.13;;;2.13;;
56893;SDS011;43392;50.078;13.704;2022-10-16T13:24:28;7.50;;;2.97;;
56893;SDS011;43392;50.078;13.704;2022-10-16T13:27:16;9.97;;;4.77;;
56893;SDS011;43392;50.078;13.704;2022-10-16T13:30:00;13.05;;;5.03;;
56893;SDS011;43392;50.078;13.704;2022-10-16T13:35:02;12.07;;;5.03;;
56893;SDS011;43392;50.078;13.704;2022-10-16T13:37:29;9.10;;;3.65;;
56893;SDS011;43392;50.078;13.704;2022-10-16T13:40:02;11.80;;;3.20;;
56893;SDS011;43392;50.078;13.704;2022-10-16T13:42:37;8.02;;;2.75;;
56893;SDS011;43392;50.078;13.704;2022-10-16T13:45:16;3.35;;;1.73;;
56893;SDS011;43392;50.078;13.704;2022-10-16T13:47:44;4.40;;;1.57;;
56893;SDS011;43392;50.078;13.704;2022-10-16T13:50:11;4.07;;;1.38;;
56893;SDS011;43392;50.078;13.704;2022-10-16T13:52:40;1.90;;;1.30;;
56893;SDS011;43392;50.078;13.704;2022-10-16T13:55:10;4.85;;;1.70;;
56893;SDS011;43392;50.078;13.704;2022-10-16T13:57:37;3.30;;;1.33;;
56893;SDS011;43392;50.078;13.704;2022-10-16T14:00:18;4.55;;;2.25;;
56893;SDS011;43392;50.078;13.704;2022-10-16T14:02:45;5.35;;;2.45;;
56893;SDS011;43392;50.078;13.704;2022-10-16T14:05:18;4.75;;;1.50;;
56893;SDS011;43392;50.078;13.704;2022-10-16T14:07:47;3.38;;;1.50;;
56893;SDS011;43392;50.078;13.704;2022-10-16T14:10:20;4.53;;;1.67;;
56893;SDS011;43392;50.078;13.704;2022-10-16T14:12:56;4.10;;;1.70;;
56893;SDS011;43392;50.078;13.704;2022-10-16T14:15:26;5.70;;;2.10;;
56893;SDS011;43392;50.078;13.704;2022-10-16T14:17:53;6.45;;;2.20;;
56893;SDS011;43392;50.078;13.704;2022-10-16T14:20:22;8.10;;;2.20;;
56893;SDS011;43392;50.078;13.704;2022-10-16T14:22:58;4.38;;;1.70;;
56893;SDS011;43392;50.078;13.704;2022-10-16T14:25:27;6.15;;;1.60;;
56893;SDS011;43392;50.078;13.704;2022-10-16T14:27:59;3.38;;;1.33;;
56893;SDS011;43392;50.078;13.704;2022-10-16T14:30:30;4.57;;;1.50;;
56893;SDS011;43392;50.078;13.704;2022-10-16T14:32:59;5.45;;;2.15;;
56893;SDS011;43392;50.078;13.704;2022-10-16T14:35:29;4.90;;;1.60;;
56893;SDS011;43392;50.078;13.704;2022-10-16T14:37:58;4.07;;;1.33;;
56893;SDS011;43392;50.078;13.704;2022-10-16T14:40:26;1.77;;;1.20;;
56893;SDS011;43392;50.078;13.704;2022-10-16T14:42:55;3.50;;;1.43;;
56893;SDS011;43392;50.078;13.704;2022-10-16T14:45:23;6.68;;;2.33;;
56893;SDS011;43392;50.078;13.704;2022-10-16T14:47:55;6.13;;;2.60;;
56893;SDS011;43392;50.078;13.704;2022-10-16T14:50:24;4.97;;;2.20;;
56893;SDS011;43392;50.078;13.704;2022-10-16T14:52:50;2.35;;;1.45;;
56893;SDS011;43392;50.078;13.704;2022-10-16T14:55:17;7.63;;;1.75;;
56893;SDS011;43392;50.078;13.704;2022-10-16T14:57:44;3.58;;;1.83;;
56893;SDS011;43392;50.078;13.704;2022-10-16T15:00:14;7.20;;;2.33;;
56893;SDS011;43392;50.078;13.704;2022-10-16T15:02:42;9.82;;;4.90;;
56893;SDS011;43392;50.078;13.704;2022-10-16T15:05:15;8.50;;;3.13;;